createdAt,value
2023-04-15T00:00:59.788Z,80.90
2023-04-15T00:03:28.719Z,80.53
2023-04-15T00:05:56.361Z,82.66
2023-04-15T00:08:23.775Z,83.01
2023-04-15T00:10:50.991Z,83.28
2023-04-15T00:13:17.947Z,82.92
2023-04-15T00:15:44.794Z,83.38
2023-04-15T00:18:11.731Z,83.69
2023-04-15T00:20:38.637Z,83.97
2023-04-15T00:23:05.717Z,84.46
2023-04-15T00:25:33.151Z,84.46
2023-04-15T00:28:00.145Z,84.78
2023-04-15T00:30:28.427Z,84.45
2023-04-15T00:32:55.495Z,84.85
2023-04-15T00:35:24.101Z,85.47
2023-04-15T00:37:51.590Z,85.22
2023-04-15T00:40:21.102Z,85.60
2023-04-15T00:42:48.376Z,88.14
2023-04-15T00:45:15.884Z,90.86
2023-04-15T00:50:44.916Z,95.24
2023-04-15T00:53:12.353Z,94.95
2023-04-15T00:55:40.066Z,95.52
2023-04-15T00:58:07.219Z,93.82
2023-04-15T01:00:34.713Z,92.53
2023-04-15T01:03:01.830Z,91.45
2023-04-15T01:05:30.313Z,90.50
2023-04-15T01:07:57.339Z,89.27
2023-04-15T01:10:24.331Z,89.62
2023-04-15T01:16:13.260Z,88.86
2023-04-15T01:18:40.436Z,89.07
2023-04-15T01:21:07.828Z,89.15
2023-04-15T01:23:38.625Z,89.24
2023-04-15T01:26:08.033Z,88.49
2023-04-15T01:28:36.395Z,89.64
2023-04-15T01:31:13.734Z,90.10
2023-04-15T01:33:42.444Z,90.06
2023-04-15T01:36:28.249Z,88.78
2023-04-15T01:38:56.016Z,88.90
2023-04-15T01:41:29.226Z,88.23
2023-04-15T01:43:57.504Z,87.29
2023-04-15T01:46:25.821Z,87.85
2023-04-15T01:48:55.052Z,87.34
2023-04-15T01:51:23.337Z,87.10
2023-04-15T01:53:52.460Z,87.39
2023-04-15T01:56:20.584Z,86.79
2023-04-15T01:58:49.040Z,87.01
2023-04-15T02:01:19.658Z,87.05
2023-04-15T02:03:48.341Z,87.00
2023-04-15T02:06:17.185Z,87.95
2023-04-15T02:08:45.383Z,87.56
2023-04-15T02:11:13.666Z,87.34
2023-04-15T02:13:41.872Z,87.61
2023-04-15T02:16:17.807Z,88.00
2023-04-15T02:18:47.094Z,87.64
2023-04-15T02:21:15.130Z,88.36
2023-04-15T02:23:44.077Z,88.24
2023-04-15T02:26:14.905Z,88.83
2023-04-15T02:28:42.928Z,88.93
2023-04-15T02:31:11.045Z,88.99
2023-04-15T02:33:39.175Z,89.87
2023-04-15T02:36:08.432Z,89.51
2023-04-15T02:38:36.680Z,89.03
2023-04-15T02:41:04.887Z,89.76
2023-04-15T02:43:32.913Z,89.17
2023-04-15T02:46:01.311Z,90.13
2023-04-15T02:48:29.602Z,90.89
2023-04-15T02:51:22.748Z,92.19
2023-04-15T02:53:51.133Z,92.66
2023-04-15T02:56:19.936Z,92.51
2023-04-15T02:58:50.686Z,93.42
2023-04-15T03:01:20.586Z,93.56
2023-04-15T03:03:49.118Z,94.51
2023-04-15T03:06:17.266Z,93.61
2023-04-15T03:08:45.715Z,93.98
2023-04-15T03:11:15.552Z,92.64
2023-04-15T03:13:43.707Z,92.55
2023-04-15T03:16:23.090Z,90.80
2023-04-15T03:18:51.578Z,89.98
2023-04-15T03:21:22.004Z,89.91
2023-04-15T03:23:50.690Z,90.52
2023-04-15T03:26:29.982Z,90.19
2023-04-15T03:29:02.166Z,90.24
2023-04-15T03:31:30.624Z,88.75
2023-04-15T03:33:58.753Z,88.71
2023-04-15T03:36:29.317Z,88.96
2023-04-15T03:38:57.979Z,87.99
2023-04-15T03:41:26.512Z,87.81
2023-04-15T03:43:54.589Z,87.15
2023-04-15T03:46:22.765Z,87.35
2023-04-15T03:48:51.164Z,87.74
2023-04-15T03:51:19.285Z,87.23
2023-04-15T03:53:47.362Z,88.41
2023-04-15T03:56:51.114Z,89.47
2023-04-15T04:03:00.074Z,90.89
2023-04-15T04:05:28.252Z,91.81
2023-04-15T04:07:56.548Z,92.87
2023-04-15T04:10:24.606Z,91.29
2023-04-15T04:12:52.663Z,90.61
2023-04-15T04:15:20.720Z,90.52
2023-04-15T04:17:48.769Z,89.15
2023-04-15T04:20:16.957Z,88.78
2023-04-15T04:22:45.015Z,88.62
2023-04-15T04:25:13.093Z,87.97
2023-04-15T04:27:41.172Z,87.22
2023-04-15T04:30:09.441Z,89.07
2023-04-15T04:32:37.789Z,91.24
2023-04-15T04:35:06.044Z,92.53
2023-04-15T04:37:34.130Z,92.83
2023-04-15T04:40:02.467Z,92.92
2023-04-15T04:42:31.547Z,91.87
2023-04-15T04:44:59.573Z,91.80
2023-04-15T04:47:27.727Z,92.81
2023-04-15T04:49:55.956Z,92.84
2023-04-15T04:52:24.184Z,93.04
2023-04-15T04:54:52.260Z,92.98
2023-04-15T04:57:20.856Z,92.65
2023-04-15T04:59:48.915Z,90.94
2023-04-15T05:02:17.137Z,90.66
2023-04-15T05:04:45.508Z,90.54
2023-04-15T05:07:13.608Z,89.23
2023-04-15T05:09:42.182Z,88.31
2023-04-15T05:12:15.015Z,87.26
2023-04-15T05:14:43.137Z,87.46
2023-04-15T05:17:11.581Z,88.02
2023-04-15T05:19:39.640Z,88.32
2023-04-15T05:22:08.209Z,86.34
2023-04-15T05:24:36.487Z,86.41
2023-04-15T05:27:04.804Z,85.80
2023-04-15T05:29:32.947Z,84.43
2023-04-15T05:32:01.254Z,83.65
2023-04-15T05:34:29.563Z,84.07
2023-04-15T05:36:57.690Z,83.36
2023-04-15T05:39:25.716Z,82.15
2023-04-15T05:41:53.813Z,81.59
2023-04-15T05:44:21.978Z,81.20
2023-04-15T05:46:49.988Z,81.31
2023-04-15T05:49:18.118Z,81.96
2023-04-15T05:51:47.960Z,81.17
2023-04-15T05:54:17.713Z,81.90
2023-04-15T05:56:47.118Z,82.22
2023-04-15T05:59:16.863Z,81.33
2023-04-15T06:01:45.842Z,81.36
2023-04-15T06:04:18.263Z,81.80
2023-04-15T06:06:46.532Z,80.63
2023-04-15T06:09:14.741Z,81.03
2023-04-15T06:11:43.016Z,81.09
2023-04-15T06:14:11.355Z,80.71
2023-04-15T06:16:40.019Z,81.11
2023-04-15T06:19:08.507Z,79.90
2023-04-15T06:21:36.810Z,79.28
2023-04-15T06:24:05.355Z,79.88
2023-04-15T06:26:33.551Z,79.72
2023-04-15T06:29:01.746Z,79.85
2023-04-15T06:31:30.564Z,79.78
2023-04-15T06:33:58.568Z,79.93
2023-04-15T06:36:26.637Z,79.61
2023-04-15T06:38:54.775Z,78.96
2023-04-15T06:41:23.045Z,79.56
2023-04-15T06:43:51.547Z,79.34
2023-04-15T06:46:19.792Z,79.65
2023-04-15T06:48:48.208Z,79.25
2023-04-15T06:51:16.352Z,79.01
2023-04-15T06:53:44.456Z,78.65
2023-04-15T06:56:12.500Z,78.54
2023-04-15T06:58:40.574Z,79.31
2023-04-15T07:01:08.966Z,78.90
2023-04-15T07:03:37.235Z,78.56
2023-04-15T07:06:07.231Z,77.22
2023-04-15T07:08:35.478Z,76.26
2023-04-15T07:11:03.665Z,75.71
2023-04-15T07:13:32.793Z,73.62
2023-04-15T07:16:00.932Z,71.73
2023-04-15T07:18:29.026Z,70.03
2023-04-15T07:20:57.537Z,69.65
2023-04-15T07:23:25.717Z,70.12
2023-04-15T07:25:53.878Z,70.28
2023-04-15T07:28:22.204Z,68.75
2023-04-15T07:30:50.575Z,69.27
2023-04-15T07:33:18.790Z,68.12
2023-04-15T07:35:47.250Z,69.55
2023-04-15T07:38:15.584Z,69.82
2023-04-15T07:40:44.076Z,71.67
2023-04-15T07:43:13.554Z,71.33
2023-04-15T07:45:41.623Z,71.89
2023-04-15T07:48:09.824Z,69.85
2023-04-15T07:50:38.204Z,70.32
2023-04-15T07:53:07.545Z,71.46
2023-04-15T07:55:35.644Z,72.29
2023-04-15T07:58:03.713Z,70.98
2023-04-15T08:00:32.165Z,70.50
2023-04-15T08:03:00.456Z,70.18
2023-04-15T08:05:40.004Z,68.91
2023-04-15T08:08:14.963Z,68.03
2023-04-15T08:10:43.229Z,68.27
2023-04-15T08:13:11.806Z,68.55
2023-04-15T08:15:44.296Z,68.86
2023-04-15T08:18:12.437Z,69.37
2023-04-15T08:20:40.906Z,69.56
2023-04-15T08:23:09.061Z,67.83
2023-04-15T08:25:37.698Z,68.92
2023-04-15T08:28:07.642Z,69.17
2023-04-15T08:30:35.839Z,69.12
2023-04-15T08:33:03.991Z,66.47
2023-04-15T08:35:32.837Z,65.74
2023-04-15T08:38:01.048Z,65.65
2023-04-15T08:40:45.080Z,65.22
2023-04-15T08:43:21.368Z,65.50
2023-04-15T08:45:51.958Z,65.08
2023-04-15T08:48:20.266Z,63.93
2023-04-15T08:50:48.822Z,63.94
2023-04-15T08:53:17.542Z,64.23
2023-04-15T08:55:47.414Z,65.25
2023-04-15T08:58:19.741Z,65.92
2023-04-15T09:00:48.882Z,65.41
2023-04-15T09:03:17.862Z,64.08
2023-04-15T09:05:46.263Z,65.05
2023-04-15T09:11:54.958Z,65.73
2023-04-15T09:14:23.291Z,67.07
2023-04-15T09:16:58.887Z,66.75
2023-04-15T09:19:27.918Z,65.34
2023-04-15T09:21:59.908Z,64.06
2023-04-15T09:24:37.670Z,64.18
2023-04-15T09:27:06.432Z,64.71
2023-04-15T09:29:34.651Z,64.21
2023-04-15T09:32:16.501Z,62.82
2023-04-15T09:34:44.789Z,62.22
2023-04-15T09:37:28.579Z,61.67
2023-04-15T09:40:00.121Z,60.24
2023-04-15T09:42:29.332Z,58.55
2023-04-15T09:45:08.580Z,60.11
2023-04-15T09:47:37.119Z,62.02
2023-04-15T09:50:05.711Z,63.65
2023-04-15T09:52:34.295Z,64.03
2023-04-15T09:55:02.724Z,63.31
2023-04-15T09:57:38.323Z,61.63
2023-04-15T10:00:08.451Z,60.06
2023-04-15T10:02:38.121Z,58.13
2023-04-15T10:05:07.260Z,57.05
2023-04-15T10:07:35.460Z,55.87
2023-04-15T10:10:04.496Z,54.35
2023-04-15T10:12:33.627Z,52.94
2023-04-15T10:15:05.209Z,52.59
2023-04-15T10:17:35.600Z,51.36
2023-04-15T10:20:05.453Z,51.11
2023-04-15T10:22:33.719Z,51.71
2023-04-15T10:25:04.287Z,51.42
2023-04-15T10:27:33.873Z,49.48
2023-04-15T10:30:03.919Z,49.35
2023-04-15T10:32:32.601Z,48.60
2023-04-15T10:35:01.397Z,48.91
2023-04-15T10:37:37.499Z,49.04
2023-04-15T10:40:25.485Z,48.87
2023-04-15T10:43:27.327Z,48.33
2023-04-15T10:45:55.567Z,48.95
2023-04-15T10:48:24.055Z,49.19
2023-04-15T10:51:00.671Z,47.60
2023-04-15T10:53:30.000Z,46.96
2023-04-15T10:55:59.884Z,46.10
2023-04-15T10:58:42.034Z,48.00
2023-04-15T11:01:10.123Z,47.84
2023-04-15T11:03:40.670Z,47.68
2023-04-15T11:06:09.514Z,47.13
2023-04-15T11:09:02.427Z,47.06
2023-04-15T11:12:06.198Z,46.77
2023-04-15T11:14:37.813Z,45.99
2023-04-15T11:17:06.072Z,45.87
2023-04-15T11:19:40.033Z,46.13
2023-04-15T11:22:09.882Z,45.96
2023-04-15T11:24:47.847Z,45.41
2023-04-15T11:27:25.160Z,46.08
2023-04-15T11:29:53.310Z,46.72
2023-04-15T11:32:21.849Z,47.69
2023-04-15T11:34:52.124Z,46.75
2023-04-15T11:37:29.265Z,45.12
2023-04-15T11:39:57.423Z,44.94
2023-04-15T11:42:26.841Z,43.54
2023-04-15T11:45:15.521Z,44.71
2023-04-15T11:47:43.939Z,46.39
2023-04-15T11:50:23.267Z,46.55
2023-04-15T11:53:01.462Z,45.28
2023-04-15T11:55:29.132Z,46.54
2023-04-15T11:58:18.315Z,47.19
2023-04-15T12:00:53.060Z,47.77
2023-04-15T12:03:26.665Z,47.30
2023-04-15T12:06:31.783Z,47.33
2023-04-15T12:09:00.399Z,46.08
2023-04-15T12:11:27.792Z,45.93
2023-04-15T12:14:07.434Z,46.33
2023-04-15T12:16:48.416Z,46.66
2023-04-15T12:19:22.868Z,47.82
2023-04-15T12:21:50.643Z,47.27
2023-04-15T12:24:22.961Z,46.59
2023-04-15T12:26:53.317Z,46.56
2023-04-15T12:29:21.271Z,47.28
2023-04-15T12:32:15.501Z,47.25
2023-04-15T12:34:53.374Z,47.40
2023-04-15T12:37:21.124Z,48.21
2023-04-15T12:39:49.972Z,48.25
2023-04-15T12:42:18.494Z,48.41
2023-04-15T12:44:45.864Z,48.96
2023-04-15T12:47:13.479Z,49.00
2023-04-15T12:49:41.351Z,48.17
2023-04-15T12:52:08.795Z,48.29
2023-04-15T12:54:36.435Z,48.51
2023-04-15T12:57:06.973Z,49.19
2023-04-15T12:59:35.821Z,49.38
2023-04-15T13:02:03.562Z,48.75
2023-04-15T13:04:31.395Z,47.88
2023-04-15T13:06:58.979Z,47.34
2023-04-15T13:09:29.169Z,47.88
2023-04-15T13:11:57.673Z,46.81
2023-04-15T13:14:24.946Z,45.84
2023-04-15T13:16:52.206Z,43.29
2023-04-15T13:19:19.109Z,42.56
2023-04-15T13:21:46.451Z,42.05
2023-04-15T13:24:13.365Z,41.82
2023-04-15T13:26:40.364Z,41.27
2023-04-15T13:29:07.448Z,40.78
2023-04-15T13:31:37.369Z,41.50
2023-04-15T13:34:04.627Z,40.87
2023-04-15T13:36:31.811Z,41.03
2023-04-15T13:38:59.975Z,41.49
2023-04-15T13:41:27.009Z,41.22
2023-04-15T13:43:53.989Z,41.22
2023-04-15T13:46:21.049Z,41.15
2023-04-15T13:48:48.097Z,41.34
2023-04-15T13:51:15.062Z,41.52
2023-04-15T13:53:41.953Z,41.24
2023-04-15T13:56:09.688Z,41.70
2023-04-15T14:25:33.273Z,46.84
2023-04-15T14:28:01.609Z,46.61
2023-04-15T14:30:28.651Z,45.81
2023-04-15T14:32:55.839Z,45.68
2023-04-15T14:35:24.619Z,46.51
2023-04-15T14:37:51.628Z,47.19
2023-04-15T14:40:19.109Z,47.24
2023-04-15T14:42:46.444Z,47.32
2023-04-15T14:45:13.484Z,47.59
2023-04-15T14:47:40.997Z,47.82
2023-04-15T14:50:08.450Z,49.51
2023-04-15T14:52:41.336Z,49.87
2023-04-15T14:55:12.781Z,49.98
2023-04-15T14:57:41.484Z,50.37
2023-04-15T15:00:12.202Z,50.50
2023-04-15T15:02:42.232Z,50.36
2023-04-15T15:05:11.741Z,50.42
2023-04-15T15:07:41.086Z,50.96
2023-04-15T15:10:08.510Z,50.42
2023-04-15T15:12:35.496Z,50.94
2023-04-15T15:15:12.307Z,50.97
2023-04-15T15:17:43.557Z,50.83
2023-04-15T15:20:10.961Z,51.12
2023-04-15T15:22:38.167Z,51.71
2023-04-15T15:25:05.757Z,52.00
2023-04-15T15:27:32.992Z,51.93
2023-04-15T15:30:00.059Z,52.57
2023-04-15T15:32:27.322Z,53.40
2023-04-15T15:34:54.323Z,53.88
2023-04-15T15:37:21.388Z,53.70
2023-04-15T15:39:49.074Z,53.46
2023-04-15T15:42:16.222Z,54.05
2023-04-15T15:44:43.193Z,53.88
2023-04-15T15:47:10.570Z,53.89
2023-04-15T15:49:38.053Z,54.39
2023-04-15T15:52:06.620Z,54.59
2023-04-15T15:54:34.833Z,54.87
2023-04-15T15:57:02.079Z,55.18
2023-04-15T15:59:29.080Z,54.49
2023-04-15T16:01:56.119Z,54.78
2023-04-15T16:04:23.461Z,55.46
2023-04-15T16:06:50.866Z,56.00
2023-04-15T16:09:18.263Z,55.89
2023-04-15T16:11:45.892Z,55.34
2023-04-15T16:14:14.084Z,55.52
2023-04-15T16:16:41.081Z,56.19
2023-04-15T16:19:08.420Z,56.17
2023-04-15T16:21:35.682Z,56.61
2023-04-15T16:24:03.088Z,57.08
2023-04-15T16:26:30.237Z,57.07
2023-04-15T16:28:57.269Z,57.31
2023-04-15T16:31:24.430Z,57.17
2023-04-15T16:33:51.534Z,57.95
2023-04-15T16:36:18.766Z,58.82
2023-04-15T16:38:48.574Z,59.11
2023-04-15T16:41:16.338Z,59.92
2023-04-15T16:43:43.266Z,60.46
2023-04-15T16:46:10.705Z,60.89
2023-04-15T16:48:37.910Z,61.19
2023-04-15T16:51:05.511Z,61.89
2023-04-15T16:53:32.581Z,62.13
2023-04-15T16:55:59.444Z,62.88
2023-04-15T16:58:26.863Z,63.01
2023-04-15T17:00:53.916Z,64.02
2023-04-15T17:03:21.324Z,64.39
2023-04-15T17:05:48.414Z,63.65
2023-04-15T17:08:15.425Z,64.95
2023-04-15T17:10:42.539Z,64.69
2023-04-15T17:13:09.508Z,65.12
2023-04-15T17:15:36.620Z,65.56
2023-04-15T17:18:23.309Z,65.71
2023-04-15T17:21:06.721Z,66.52
2023-04-15T17:23:42.558Z,66.92
2023-04-15T17:26:12.039Z,66.37
2023-04-15T17:28:44.062Z,66.38
2023-04-15T17:31:18.051Z,67.02
2023-04-15T17:34:09.718Z,67.04
2023-04-15T17:36:58.083Z,66.95
2023-04-15T17:39:45.016Z,67.06
2023-04-15T17:42:31.978Z,67.12
2023-04-15T17:45:19.003Z,66.85
2023-04-15T17:48:06.027Z,66.33
2023-04-15T17:50:53.072Z,64.90
2023-04-15T17:53:39.853Z,63.75
2023-04-15T17:56:29.343Z,63.78
2023-04-15T17:59:16.762Z,63.09
2023-04-15T18:02:03.837Z,62.95
2023-04-15T18:04:50.940Z,62.02
2023-04-15T18:07:37.853Z,61.08
2023-04-15T18:10:24.698Z,64.45
2023-04-15T18:13:11.565Z,64.86
2023-04-15T18:15:58.451Z,64.94
2023-04-15T18:18:45.523Z,64.09
2023-04-15T18:21:13.747Z,63.62
2023-04-15T18:23:41.085Z,62.28
2023-04-15T18:26:11.342Z,62.00
2023-04-15T18:28:39.971Z,61.40
2023-04-15T18:31:07.308Z,59.85
2023-04-15T18:33:36.062Z,60.22
2023-04-15T18:36:09.764Z,60.93
2023-04-15T18:38:37.000Z,62.44
2023-04-15T18:41:05.549Z,63.32
2023-04-15T18:43:32.736Z,63.95
2023-04-15T18:46:00.132Z,64.77
2023-04-15T18:48:27.836Z,63.49
2023-04-15T18:50:55.206Z,61.41
2023-04-15T18:53:22.716Z,60.56
2023-04-15T18:55:49.775Z,61.02
2023-04-15T18:58:16.719Z,60.31
2023-04-15T19:00:43.887Z,60.70
2023-04-15T19:03:11.462Z,60.19
2023-04-15T19:05:38.846Z,60.05
2023-04-15T19:08:05.841Z,58.54
2023-04-15T19:10:34.386Z,57.48
2023-04-15T19:13:01.298Z,56.09
2023-04-15T19:15:29.188Z,56.24
2023-04-15T19:17:56.160Z,53.83
2023-04-15T19:20:23.175Z,52.68
2023-04-15T19:22:50.142Z,50.66
2023-04-15T19:25:17.238Z,49.06
2023-04-15T19:27:44.356Z,48.80
2023-04-15T19:30:11.624Z,48.12
2023-04-15T19:32:38.604Z,48.43
2023-04-15T19:35:06.574Z,48.40
2023-04-15T19:37:33.664Z,48.96
2023-04-15T19:40:00.980Z,48.92
2023-04-15T19:42:28.696Z,49.53
2023-04-15T19:44:55.666Z,49.65
2023-04-15T19:47:23.274Z,49.97
2023-04-15T19:49:54.222Z,50.50
2023-04-15T19:52:22.402Z,50.13
2023-04-15T19:54:49.420Z,50.02
2023-04-15T19:57:16.350Z,50.18
2023-04-15T19:59:43.469Z,50.23
2023-04-15T20:02:10.859Z,50.62
2023-04-15T20:04:41.107Z,50.50
2023-04-15T20:07:08.399Z,50.73
2023-04-15T20:09:35.668Z,51.20
2023-04-15T20:12:46.817Z,52.70
2023-04-15T20:14:49.844Z,52.94
2023-04-15T20:17:17.103Z,55.56
2023-04-15T20:19:44.088Z,57.25
2023-04-15T20:22:10.966Z,57.41
2023-04-15T20:24:38.033Z,58.18
2023-04-15T20:27:05.099Z,57.90
2023-04-15T20:29:32.062Z,57.34
2023-04-15T20:31:59.152Z,58.76
2023-04-15T20:34:26.250Z,58.44
2023-04-15T20:36:53.212Z,58.88
2023-04-15T20:39:20.284Z,59.29
2023-04-15T20:41:47.568Z,58.68
2023-04-15T20:44:15.407Z,59.88
2023-04-15T20:46:42.728Z,60.61
2023-04-15T20:49:10.385Z,60.96
2023-04-15T20:51:38.125Z,61.47
2023-04-15T20:54:05.851Z,61.59
2023-04-15T20:56:33.055Z,62.01
2023-04-15T20:59:01.092Z,62.72
2023-04-15T21:01:28.113Z,62.96
2023-04-15T21:03:55.623Z,62.53
2023-04-15T21:06:22.656Z,62.51
2023-04-15T21:08:49.649Z,63.23
2023-04-15T21:11:33.207Z,63.32
2023-04-15T21:14:07.416Z,63.11
2023-04-15T21:16:34.549Z,63.32
2023-04-15T21:25:43.201Z,63.09
2023-04-15T21:28:10.096Z,63.87
2023-04-15T21:30:37.487Z,63.99
2023-04-15T21:33:04.586Z,64.88
2023-04-15T21:35:31.797Z,64.73
2023-04-15T21:37:58.733Z,65.39
2023-04-15T21:40:25.974Z,65.83
2023-04-15T21:42:53.236Z,66.32
2023-04-15T21:45:20.296Z,67.21
2023-04-15T21:48:00.274Z,68.71
2023-04-15T21:50:35.790Z,67.62
2023-04-15T21:53:04.289Z,66.16
2023-04-15T21:55:31.274Z,66.69
2023-04-15T21:58:05.330Z,67.84
2023-04-15T22:00:35.662Z,67.52
2023-04-15T22:03:02.747Z,68.30
2023-04-15T22:05:29.806Z,66.73
2023-04-15T22:07:58.290Z,66.14
2023-04-15T22:10:25.376Z,65.72
2023-04-15T22:12:52.437Z,65.95
2023-04-15T22:15:19.423Z,65.73
2023-04-15T22:17:46.903Z,66.18
2023-04-15T22:20:14.114Z,66.00
2023-04-15T22:22:44.317Z,65.61
2023-04-15T22:25:12.601Z,66.02
2023-04-15T22:27:39.959Z,65.52
2023-04-15T22:30:07.967Z,65.13
2023-04-15T22:32:35.091Z,65.68
2023-04-15T22:35:02.548Z,65.80
2023-04-15T22:37:31.937Z,65.09
2023-04-15T22:39:59.492Z,64.12
2023-04-15T22:42:26.791Z,63.30
2023-04-15T22:44:53.902Z,63.99
2023-04-15T22:47:20.967Z,63.40
2023-04-15T22:49:47.969Z,63.51
2023-04-15T22:52:29.500Z,64.34
2023-04-15T22:54:58.570Z,64.12
2023-04-15T22:57:27.858Z,63.29
2023-04-15T22:59:55.003Z,63.14
2023-04-15T23:02:22.168Z,63.64
2023-04-15T23:04:49.358Z,63.41
2023-04-15T23:07:16.384Z,64.14
2023-04-15T23:09:43.335Z,64.12
2023-04-15T23:12:10.541Z,64.10
2023-04-15T23:14:37.457Z,64.27
2023-04-15T23:17:04.392Z,64.26
2023-04-15T23:19:31.343Z,63.93
2023-04-15T23:21:58.428Z,63.63
2023-04-15T23:24:25.434Z,64.07
2023-04-15T23:26:53.186Z,64.40
2023-04-15T23:29:20.204Z,64.35
2023-04-15T23:31:47.213Z,64.19
2023-04-15T23:34:14.195Z,64.85
2023-04-15T23:36:41.163Z,64.46
2023-04-15T23:39:08.379Z,63.95
2023-04-15T23:41:36.634Z,64.94
2023-04-15T23:44:03.729Z,65.44
2023-04-15T23:46:31.098Z,65.42
2023-04-15T23:48:58.156Z,65.04
2023-04-15T23:51:25.084Z,65.17
2023-04-15T23:53:52.430Z,66.09
2023-04-15T23:56:19.519Z,66.03
2023-04-15T23:58:46.602Z,66.41
